sensor_id;sensor_type;location;lat;lon;timestamp;temperature;humidity
68235;DHT22;55052;52.056;5.296;2023-01-08T00:02:24;10.80;89.50
68235;DHT22;55052;52.056;5.296;2023-01-08T00:04:51;10.70;89.60
68235;DHT22;55052;52.056;5.296;2023-01-08T00:07:18;10.60;89.60
68235;DHT22;55052;52.056;5.296;2023-01-08T00:09:44;10.60;90.10
68235;DHT22;55052;52.056;5.296;2023-01-08T00:12:13;10.50;90.10
68235;DHT22;55052;52.056;5.296;2023-01-08T00:14:39;10.40;90.30
68235;DHT22;55052;52.056;5.296;2023-01-08T00:17:06;10.40;90.50
68235;DHT22;55052;52.056;5.296;2023-01-08T00:19:34;10.30;90.70
68235;DHT22;55052;52.056;5.296;2023-01-08T00:22:00;10.30;90.80
68235;DHT22;55052;52.056;5.296;2023-01-08T00:24:27;10.30;91.00
68235;DHT22;55052;52.056;5.296;2023-01-08T00:26:54;10.30;91.10
68235;DHT22;55052;52.056;5.296;2023-01-08T00:29:21;10.20;91.20
68235;DHT22;55052;52.056;5.296;2023-01-08T00:31:47;10.20;91.30
68235;DHT22;55052;52.056;5.296;2023-01-08T00:34:14;10.20;91.30
68235;DHT22;55052;52.056;5.296;2023-01-08T00:36:41;10.20;91.40
68235;DHT22;55052;52.056;5.296;2023-01-08T00:39:07;10.20;91.50
68235;DHT22;55052;52.056;5.296;2023-01-08T00:41:34;10.20;91.50
68235;DHT22;55052;52.056;5.296;2023-01-08T00:44:01;10.20;91.50
68235;DHT22;55052;52.056;5.296;2023-01-08T00:46:28;10.30;91.60
68235;DHT22;55052;52.056;5.296;2023-01-08T00:48:54;10.30;91.60
68235;DHT22;55052;52.056;5.296;2023-01-08T00:51:21;10.30;91.60
68235;DHT22;55052;52.056;5.296;2023-01-08T00:53:48;10.30;91.80
68235;DHT22;55052;52.056;5.296;2023-01-08T00:56:15;10.30;91.90
68235;DHT22;55052;52.056;5.296;2023-01-08T00:58:41;10.30;92.00
68235;DHT22;55052;52.056;5.296;2023-01-08T01:01:13;10.30;92.20
68235;DHT22;55052;52.056;5.296;2023-01-08T01:03:41;10.30;92.40
68235;DHT22;55052;52.056;5.296;2023-01-08T01:06:09;10.30;92.50
68235;DHT22;55052;52.056;5.296;2023-01-08T01:08:36;10.40;92.70
68235;DHT22;55052;52.056;5.296;2023-01-08T01:11:23;10.40;92.80
68235;DHT22;55052;52.056;5.296;2023-01-08T01:13:51;10.40;92.60
68235;DHT22;55052;52.056;5.296;2023-01-08T01:16:18;10.50;92.40
68235;DHT22;55052;52.056;5.296;2023-01-08T01:18:45;10.50;92.30
68235;DHT22;55052;52.056;5.296;2023-01-08T01:21:18;10.50;92.20
68235;DHT22;55052;52.056;5.296;2023-01-08T01:23:46;10.50;92.10
68235;DHT22;55052;52.056;5.296;2023-01-08T01:26:15;10.50;92.00
68235;DHT22;55052;52.056;5.296;2023-01-08T01:28:43;10.60;91.80
68235;DHT22;55052;52.056;5.296;2023-01-08T01:31:11;10.60;91.60
68235;DHT22;55052;52.056;5.296;2023-01-08T01:33:39;10.50;91.60
68235;DHT22;55052;52.056;5.296;2023-01-08T01:36:06;10.50;91.70
68235;DHT22;55052;52.056;5.296;2023-01-08T01:38:33;10.50;91.30
68235;DHT22;55052;52.056;5.296;2023-01-08T01:41:00;10.50;91.20
68235;DHT22;55052;52.056;5.296;2023-01-08T01:43:34;10.60;91.30
68235;DHT22;55052;52.056;5.296;2023-01-08T01:46:03;10.50;91.30
68235;DHT22;55052;52.056;5.296;2023-01-08T01:48:30;10.50;91.30
68235;DHT22;55052;52.056;5.296;2023-01-08T01:50:57;10.50;91.50
68235;DHT22;55052;52.056;5.296;2023-01-08T01:53:27;10.50;91.50
68235;DHT22;55052;52.056;5.296;2023-01-08T01:55:55;10.50;91.50
68235;DHT22;55052;52.056;5.296;2023-01-08T01:58:25;10.50;91.50
68235;DHT22;55052;52.056;5.296;2023-01-08T02:00:55;10.50;91.50
68235;DHT22;55052;52.056;5.296;2023-01-08T02:03:24;10.50;91.60
68235;DHT22;55052;52.056;5.296;2023-01-08T02:11:52;10.50;91.70
68235;DHT22;55052;52.056;5.296;2023-01-08T02:28:11;10.40;92.00
68235;DHT22;55052;52.056;5.296;2023-01-08T02:30:40;10.40;92.00
68235;DHT22;55052;52.056;5.296;2023-01-08T02:33:07;10.40;92.10
68235;DHT22;55052;52.056;5.296;2023-01-08T02:36:09;10.30;92.10
68235;DHT22;55052;52.056;5.296;2023-01-08T02:38:49;10.40;92.20
68235;DHT22;55052;52.056;5.296;2023-01-08T02:41:18;10.30;92.20
68235;DHT22;55052;52.056;5.296;2023-01-08T02:43:50;10.40;92.20
68235;DHT22;55052;52.056;5.296;2023-01-08T02:46:25;10.30;92.10
68235;DHT22;55052;52.056;5.296;2023-01-08T02:48:59;10.40;92.20
68235;DHT22;55052;52.056;5.296;2023-01-08T02:51:38;10.40;92.20
68235;DHT22;55052;52.056;5.296;2023-01-08T02:54:11;10.40;92.20
68235;DHT22;55052;52.056;5.296;2023-01-08T02:56:49;10.40;92.20
68235;DHT22;55052;52.056;5.296;2023-01-08T02:59:18;10.40;92.20
68235;DHT22;55052;52.056;5.296;2023-01-08T03:01:45;10.40;92.20
68235;DHT22;55052;52.056;5.296;2023-01-08T03:04:16;10.40;92.20
68235;DHT22;55052;52.056;5.296;2023-01-08T03:06:44;10.40;92.30
68235;DHT22;55052;52.056;5.296;2023-01-08T03:09:12;10.40;92.30
68235;DHT22;55052;52.056;5.296;2023-01-08T03:14:52;10.40;92.30
68235;DHT22;55052;52.056;5.296;2023-01-08T03:17:43;10.40;92.40
68235;DHT22;55052;52.056;5.296;2023-01-08T03:20:16;10.40;92.40
68235;DHT22;55052;52.056;5.296;2023-01-08T03:22:47;10.40;92.40
68235;DHT22;55052;52.056;5.296;2023-01-08T03:25:16;10.40;92.40
68235;DHT22;55052;52.056;5.296;2023-01-08T03:27:48;10.40;92.40
68235;DHT22;55052;52.056;5.296;2023-01-08T03:30:17;10.40;92.40
68235;DHT22;55052;52.056;5.296;2023-01-08T03:32:46;10.40;92.40
68235;DHT22;55052;52.056;5.296;2023-01-08T03:35:17;10.40;92.40
68235;DHT22;55052;52.056;5.296;2023-01-08T03:37:50;10.40;92.40
68235;DHT22;55052;52.056;5.296;2023-01-08T03:40:35;10.40;92.40
68235;DHT22;55052;52.056;5.296;2023-01-08T03:43:04;10.40;92.30
68235;DHT22;55052;52.056;5.296;2023-01-08T03:45:32;10.40;92.40
68235;DHT22;55052;52.056;5.296;2023-01-08T03:48:00;10.40;92.40
68235;DHT22;55052;52.056;5.296;2023-01-08T03:50:30;10.40;92.50
68235;DHT22;55052;52.056;5.296;2023-01-08T03:52:57;10.40;92.50
68235;DHT22;55052;52.056;5.296;2023-01-08T03:55:26;10.40;92.50
68235;DHT22;55052;52.056;5.296;2023-01-08T03:57:53;10.40;92.50
68235;DHT22;55052;52.056;5.296;2023-01-08T04:00:20;10.40;92.80
68235;DHT22;55052;52.056;5.296;2023-01-08T04:02:46;10.40;92.40
68235;DHT22;55052;52.056;5.296;2023-01-08T04:05:13;10.40;92.40
68235;DHT22;55052;52.056;5.296;2023-01-08T04:07:40;10.40;92.30
68235;DHT22;55052;52.056;5.296;2023-01-08T04:10:07;10.40;92.30
68235;DHT22;55052;52.056;5.296;2023-01-08T04:12:34;10.40;92.30
68235;DHT22;55052;52.056;5.296;2023-01-08T04:15:00;10.40;92.30
68235;DHT22;55052;52.056;5.296;2023-01-08T04:17:27;10.30;92.20
68235;DHT22;55052;52.056;5.296;2023-01-08T04:19:54;10.40;92.20
68235;DHT22;55052;52.056;5.296;2023-01-08T04:22:20;10.40;92.20
68235;DHT22;55052;52.056;5.296;2023-01-08T04:24:47;10.40;92.10
68235;DHT22;55052;52.056;5.296;2023-01-08T04:27:14;10.30;92.10
68235;DHT22;55052;52.056;5.296;2023-01-08T04:29:41;10.30;92.00
68235;DHT22;55052;52.056;5.296;2023-01-08T04:32:08;10.30;92.00
68235;DHT22;55052;52.056;5.296;2023-01-08T04:34:34;10.30;92.00
68235;DHT22;55052;52.056;5.296;2023-01-08T04:37:01;10.30;92.00
68235;DHT22;55052;52.056;5.296;2023-01-08T04:39:28;10.30;91.90
68235;DHT22;55052;52.056;5.296;2023-01-08T04:41:55;10.30;91.90
68235;DHT22;55052;52.056;5.296;2023-01-08T04:44:22;10.30;91.80
68235;DHT22;55052;52.056;5.296;2023-01-08T04:46:48;10.30;91.80
68235;DHT22;55052;52.056;5.296;2023-01-08T04:49:15;10.20;91.80
68235;DHT22;55052;52.056;5.296;2023-01-08T04:51:42;10.30;91.70
68235;DHT22;55052;52.056;5.296;2023-01-08T04:54:09;10.20;91.60
68235;DHT22;55052;52.056;5.296;2023-01-08T04:56:36;10.20;91.70
68235;DHT22;55052;52.056;5.296;2023-01-08T04:59:03;10.20;91.60
68235;DHT22;55052;52.056;5.296;2023-01-08T05:01:29;10.20;91.60
68235;DHT22;55052;52.056;5.296;2023-01-08T05:04:02;10.10;91.60
68235;DHT22;55052;52.056;5.296;2023-01-08T05:06:30;10.10;91.70
68235;DHT22;55052;52.056;5.296;2023-01-08T05:08:57;10.10;91.60
68235;DHT22;55052;52.056;5.296;2023-01-08T05:11:24;10.10;91.60
68235;DHT22;55052;52.056;5.296;2023-01-08T05:13:51;10.00;91.50
68235;DHT22;55052;52.056;5.296;2023-01-08T05:16:18;10.00;91.60
68235;DHT22;55052;52.056;5.296;2023-01-08T05:18:45;10.00;92.00
68235;DHT22;55052;52.056;5.296;2023-01-08T05:21:12;10.00;91.60
68235;DHT22;55052;52.056;5.296;2023-01-08T05:23:42;10.00;91.60
68235;DHT22;55052;52.056;5.296;2023-01-08T05:26:09;9.90;91.50
68235;DHT22;55052;52.056;5.296;2023-01-08T05:28:36;9.90;91.60
68235;DHT22;55052;52.056;5.296;2023-01-08T05:31:03;9.90;91.50
68235;DHT22;55052;52.056;5.296;2023-01-08T05:33:30;9.90;91.50
68235;DHT22;55052;52.056;5.296;2023-01-08T05:35:57;9.80;91.50
68235;DHT22;55052;52.056;5.296;2023-01-08T05:38:23;9.80;91.60
68235;DHT22;55052;52.056;5.296;2023-01-08T05:40:53;9.80;91.60
68235;DHT22;55052;52.056;5.296;2023-01-08T05:43:20;9.80;91.60
68235;DHT22;55052;52.056;5.296;2023-01-08T05:45:47;9.70;91.60
68235;DHT22;55052;52.056;5.296;2023-01-08T05:48:13;9.70;91.60
68235;DHT22;55052;52.056;5.296;2023-01-08T05:50:40;9.70;91.50
68235;DHT22;55052;52.056;5.296;2023-01-08T05:53:07;9.60;91.60
68235;DHT22;55052;52.056;5.296;2023-01-08T05:55:34;9.70;91.60
68235;DHT22;55052;52.056;5.296;2023-01-08T05:58:03;9.60;91.60
68235;DHT22;55052;52.056;5.296;2023-01-08T06:00:30;9.60;91.60
68235;DHT22;55052;52.056;5.296;2023-01-08T06:02:57;9.60;91.60
68235;DHT22;55052;52.056;5.296;2023-01-08T06:05:24;9.50;91.60
68235;DHT22;55052;52.056;5.296;2023-01-08T06:07:51;9.50;91.70
68235;DHT22;55052;52.056;5.296;2023-01-08T06:10:18;9.50;91.70
68235;DHT22;55052;52.056;5.296;2023-01-08T06:12:44;9.50;91.60
68235;DHT22;55052;52.056;5.296;2023-01-08T06:15:11;9.40;91.60
68235;DHT22;55052;52.056;5.296;2023-01-08T06:17:38;9.40;91.60
68235;DHT22;55052;52.056;5.296;2023-01-08T06:20:05;9.40;91.70
68235;DHT22;55052;52.056;5.296;2023-01-08T06:22:33;9.40;91.70
68235;DHT22;55052;52.056;5.296;2023-01-08T06:25:00;9.30;91.70
68235;DHT22;55052;52.056;5.296;2023-01-08T06:27:27;9.30;91.80
68235;DHT22;55052;52.056;5.296;2023-01-08T06:29:54;9.30;91.80
68235;DHT22;55052;52.056;5.296;2023-01-08T06:32:21;9.30;91.70
68235;DHT22;55052;52.056;5.296;2023-01-08T06:34:47;9.20;91.70
68235;DHT22;55052;52.056;5.296;2023-01-08T06:37:14;9.20;91.70
68235;DHT22;55052;52.056;5.296;2023-01-08T06:39:41;9.20;91.70
68235;DHT22;55052;52.056;5.296;2023-01-08T06:42:07;9.10;91.70
68235;DHT22;55052;52.056;5.296;2023-01-08T06:44:34;9.10;92.10
68235;DHT22;55052;52.056;5.296;2023-01-08T06:47:01;9.10;91.70
68235;DHT22;55052;52.056;5.296;2023-01-08T06:49:27;9.10;91.70
68235;DHT22;55052;52.056;5.296;2023-01-08T06:51:54;9.10;91.70
68235;DHT22;55052;52.056;5.296;2023-01-08T06:54:22;9.10;91.70
68235;DHT22;55052;52.056;5.296;2023-01-08T06:56:49;9.00;91.70
68235;DHT22;55052;52.056;5.296;2023-01-08T06:59:19;9.00;91.70
68235;DHT22;55052;52.056;5.296;2023-01-08T07:01:46;9.00;91.60
68235;DHT22;55052;52.056;5.296;2023-01-08T07:04:13;8.90;91.70
68235;DHT22;55052;52.056;5.296;2023-01-08T07:06:40;8.90;91.70
68235;DHT22;55052;52.056;5.296;2023-01-08T07:09:13;8.90;91.80
68235;DHT22;55052;52.056;5.296;2023-01-08T07:11:40;8.90;91.80
68235;DHT22;55052;52.056;5.296;2023-01-08T07:14:07;8.80;91.80
68235;DHT22;55052;52.056;5.296;2023-01-08T07:16:34;8.80;91.80
68235;DHT22;55052;52.056;5.296;2023-01-08T07:19:01;8.80;91.80
68235;DHT22;55052;52.056;5.296;2023-01-08T07:21:28;8.80;91.80
68235;DHT22;55052;52.056;5.296;2023-01-08T07:23:56;8.80;91.80
68235;DHT22;55052;52.056;5.296;2023-01-08T07:26:25;8.80;91.80
68235;DHT22;55052;52.056;5.296;2023-01-08T07:28:52;8.80;91.80
68235;DHT22;55052;52.056;5.296;2023-01-08T07:31:19;8.70;91.80
68235;DHT22;55052;52.056;5.296;2023-01-08T07:33:46;8.70;91.70
68235;DHT22;55052;52.056;5.296;2023-01-08T07:36:13;8.70;91.80
68235;DHT22;55052;52.056;5.296;2023-01-08T07:38:41;8.70;91.80
68235;DHT22;55052;52.056;5.296;2023-01-08T07:41:08;8.70;91.70
68235;DHT22;55052;52.056;5.296;2023-01-08T07:43:35;8.70;91.70
68235;DHT22;55052;52.056;5.296;2023-01-08T07:46:02;8.70;91.70
68235;DHT22;55052;52.056;5.296;2023-01-08T07:48:29;8.70;91.60
68235;DHT22;55052;52.056;5.296;2023-01-08T07:51:04;8.60;91.50
68235;DHT22;55052;52.056;5.296;2023-01-08T07:53:31;8.60;91.50
68235;DHT22;55052;52.056;5.296;2023-01-08T07:56:06;8.60;91.50
68235;DHT22;55052;52.056;5.296;2023-01-08T07:58:34;8.60;91.50
68235;DHT22;55052;52.056;5.296;2023-01-08T08:01:01;8.60;91.40
68235;DHT22;55052;52.056;5.296;2023-01-08T08:03:28;8.50;91.40
68235;DHT22;55052;52.056;5.296;2023-01-08T08:05:55;8.50;91.30
68235;DHT22;55052;52.056;5.296;2023-01-08T08:08:22;8.50;91.30
68235;DHT22;55052;52.056;5.296;2023-01-08T08:10:49;8.50;91.30
68235;DHT22;55052;52.056;5.296;2023-01-08T08:13:15;8.50;91.30
68235;DHT22;55052;52.056;5.296;2023-01-08T08:15:42;8.50;91.30
68235;DHT22;55052;52.056;5.296;2023-01-08T08:18:09;8.50;91.30
68235;DHT22;55052;52.056;5.296;2023-01-08T08:20:37;8.40;91.30
68235;DHT22;55052;52.056;5.296;2023-01-08T08:23:09;8.40;91.20
68235;DHT22;55052;52.056;5.296;2023-01-08T08:25:39;8.40;91.30
68235;DHT22;55052;52.056;5.296;2023-01-08T08:28:06;8.40;91.30
68235;DHT22;55052;52.056;5.296;2023-01-08T08:30:36;8.40;91.30
68235;DHT22;55052;52.056;5.296;2023-01-08T08:33:04;8.40;91.30
68235;DHT22;55052;52.056;5.296;2023-01-08T08:35:32;8.40;91.30
68235;DHT22;55052;52.056;5.296;2023-01-08T08:38:00;8.40;91.20
68235;DHT22;55052;52.056;5.296;2023-01-08T08:40:27;8.40;91.20
68235;DHT22;55052;52.056;5.296;2023-01-08T08:42:59;8.40;91.20
68235;DHT22;55052;52.056;5.296;2023-01-08T08:45:26;8.40;91.20
68235;DHT22;55052;52.056;5.296;2023-01-08T08:47:53;8.40;91.20
68235;DHT22;55052;52.056;5.296;2023-01-08T08:50:21;8.40;91.20
68235;DHT22;55052;52.056;5.296;2023-01-08T08:52:48;8.40;91.10
68235;DHT22;55052;52.056;5.296;2023-01-08T08:55:15;8.40;91.10
68235;DHT22;55052;52.056;5.296;2023-01-08T08:57:43;8.40;91.10
68235;DHT22;55052;52.056;5.296;2023-01-08T09:00:11;8.40;91.00
68235;DHT22;55052;52.056;5.296;2023-01-08T09:02:38;8.40;91.10
68235;DHT22;55052;52.056;5.296;2023-01-08T09:05:06;8.40;91.00
68235;DHT22;55052;52.056;5.296;2023-01-08T09:07:33;8.40;91.00
68235;DHT22;55052;52.056;5.296;2023-01-08T09:10:00;8.40;91.00
68235;DHT22;55052;52.056;5.296;2023-01-08T09:12:26;8.30;91.00
68235;DHT22;55052;52.056;5.296;2023-01-08T09:14:53;8.30;91.10
68235;DHT22;55052;52.056;5.296;2023-01-08T09:17:23;8.30;91.00
68235;DHT22;55052;52.056;5.296;2023-01-08T09:19:51;8.30;91.10
68235;DHT22;55052;52.056;5.296;2023-01-08T09:22:18;8.30;91.10
68235;DHT22;55052;52.056;5.296;2023-01-08T09:24:45;8.40;91.10
68235;DHT22;55052;52.056;5.296;2023-01-08T09:27:12;8.40;91.20
68235;DHT22;55052;52.056;5.296;2023-01-08T09:29:39;8.40;91.10
68235;DHT22;55052;52.056;5.296;2023-01-08T09:32:06;8.40;91.20
68235;DHT22;55052;52.056;5.296;2023-01-08T09:34:34;8.50;91.20
68235;DHT22;55052;52.056;5.296;2023-01-08T09:37:02;8.50;91.20
68235;DHT22;55052;52.056;5.296;2023-01-08T09:39:29;8.50;91.20
68235;DHT22;55052;52.056;5.296;2023-01-08T09:41:59;8.50;91.20
68235;DHT22;55052;52.056;5.296;2023-01-08T09:44:27;8.50;91.20
68235;DHT22;55052;52.056;5.296;2023-01-08T09:46:55;8.60;91.30
68235;DHT22;55052;52.056;5.296;2023-01-08T09:49:59;8.60;91.30
68235;DHT22;55052;52.056;5.296;2023-01-08T09:52:27;8.70;91.40
68235;DHT22;55052;52.056;5.296;2023-01-08T09:54:55;8.70;91.40
68235;DHT22;55052;52.056;5.296;2023-01-08T09:57:21;8.70;91.40
68235;DHT22;55052;52.056;5.296;2023-01-08T09:59:49;8.80;91.40
68235;DHT22;55052;52.056;5.296;2023-01-08T10:02:24;8.80;91.40
68235;DHT22;55052;52.056;5.296;2023-01-08T10:04:58;8.80;91.40
68235;DHT22;55052;52.056;5.296;2023-01-08T10:07:27;8.90;91.50
68235;DHT22;55052;52.056;5.296;2023-01-08T10:09:56;8.90;91.50
68235;DHT22;55052;52.056;5.296;2023-01-08T10:12:29;9.00;91.50
68235;DHT22;55052;52.056;5.296;2023-01-08T10:15:00;9.10;91.50
68235;DHT22;55052;52.056;5.296;2023-01-08T10:17:40;9.10;91.50
68235;DHT22;55052;52.056;5.296;2023-01-08T10:20:17;9.10;91.40
68235;DHT22;55052;52.056;5.296;2023-01-08T10:22:45;9.20;91.50
68235;DHT22;55052;52.056;5.296;2023-01-08T10:25:18;9.20;91.40
68235;DHT22;55052;52.056;5.296;2023-01-08T10:27:46;9.30;91.40
68235;DHT22;55052;52.056;5.296;2023-01-08T10:30:20;9.40;91.50
68235;DHT22;55052;52.056;5.296;2023-01-08T10:32:52;9.40;91.40
68235;DHT22;55052;52.056;5.296;2023-01-08T10:35:30;9.50;91.40
68235;DHT22;55052;52.056;5.296;2023-01-08T10:37:58;9.50;91.40
68235;DHT22;55052;52.056;5.296;2023-01-08T10:43:05;9.60;91.40
68235;DHT22;55052;52.056;5.296;2023-01-08T10:45:33;9.70;91.20
68235;DHT22;55052;52.056;5.296;2023-01-08T10:48:04;9.70;91.20
68235;DHT22;55052;52.056;5.296;2023-01-08T10:50:33;9.80;91.20
68235;DHT22;55052;52.056;5.296;2023-01-08T10:53:03;9.80;91.10
68235;DHT22;55052;52.056;5.296;2023-01-08T10:55:31;9.90;91.00
68235;DHT22;55052;52.056;5.296;2023-01-08T10:58:03;9.90;91.00
68235;DHT22;55052;52.056;5.296;2023-01-08T11:00:32;9.90;90.90
68235;DHT22;55052;52.056;5.296;2023-01-08T11:03:05;10.00;90.90
68235;DHT22;55052;52.056;5.296;2023-01-08T11:05:37;10.10;90.90
68235;DHT22;55052;52.056;5.296;2023-01-08T11:08:06;10.10;90.80
68235;DHT22;55052;52.056;5.296;2023-01-08T11:10:35;10.10;90.60
68235;DHT22;55052;52.056;5.296;2023-01-08T11:13:04;10.20;90.50
68235;DHT22;55052;52.056;5.296;2023-01-08T11:15:37;10.20;90.40
68235;DHT22;55052;52.056;5.296;2023-01-08T11:20:33;10.30;90.20
68235;DHT22;55052;52.056;5.296;2023-01-08T11:23:05;10.30;90.20
68235;DHT22;55052;52.056;5.296;2023-01-08T11:25:33;10.40;90.30
68235;DHT22;55052;52.056;5.296;2023-01-08T11:28:01;10.40;90.20
68235;DHT22;55052;52.056;5.296;2023-01-08T11:30:31;10.40;90.20
68235;DHT22;55052;52.056;5.296;2023-01-08T11:33:05;10.50;90.10
68235;DHT22;55052;52.056;5.296;2023-01-08T11:35:35;10.50;90.10
68235;DHT22;55052;52.056;5.296;2023-01-08T11:38:03;10.60;90.20
68235;DHT22;55052;52.056;5.296;2023-01-08T11:40:41;10.60;89.90
68235;DHT22;55052;52.056;5.296;2023-01-08T12:00:26;10.80;88.30
68235;DHT22;55052;52.056;5.296;2023-01-08T12:02:58;10.80;88.10
68235;DHT22;55052;52.056;5.296;2023-01-08T12:05:27;10.90;88.00
68235;DHT22;55052;52.056;5.296;2023-01-08T12:21:28;11.00;87.80
68235;DHT22;55052;52.056;5.296;2023-01-08T12:24:14;11.00;86.80
68235;DHT22;55052;52.056;5.296;2023-01-08T12:26:59;11.00;86.70
68235;DHT22;55052;52.056;5.296;2023-01-08T12:32:35;11.00;86.30
68235;DHT22;55052;52.056;5.296;2023-01-08T12:35:21;11.00;85.30
68235;DHT22;55052;52.056;5.296;2023-01-08T12:40:39;11.00;85.40
68235;DHT22;55052;52.056;5.296;2023-01-08T12:43:17;11.00;85.60
68235;DHT22;55052;52.056;5.296;2023-01-08T12:45:47;11.10;85.30
68235;DHT22;55052;52.056;5.296;2023-01-08T12:48:19;11.10;85.40
68235;DHT22;55052;52.056;5.296;2023-01-08T12:51:09;11.10;85.30
68235;DHT22;55052;52.056;5.296;2023-01-08T12:56:56;11.10;84.50
68235;DHT22;55052;52.056;5.296;2023-01-08T13:05:33;11.10;84.40
68235;DHT22;55052;52.056;5.296;2023-01-08T13:08:07;11.10;84.80
68235;DHT22;55052;52.056;5.296;2023-01-08T13:10:50;11.10;84.20
68235;DHT22;55052;52.056;5.296;2023-01-08T13:13:36;11.10;84.10
68235;DHT22;55052;52.056;5.296;2023-01-08T13:16:19;11.10;83.70
68235;DHT22;55052;52.056;5.296;2023-01-08T13:18:55;11.10;83.30
68235;DHT22;55052;52.056;5.296;2023-01-08T13:21:35;11.10;83.20
68235;DHT22;55052;52.056;5.296;2023-01-08T13:24:22;11.10;82.90
68235;DHT22;55052;52.056;5.296;2023-01-08T13:26:52;11.10;83.20
68235;DHT22;55052;52.056;5.296;2023-01-08T13:29:37;11.10;83.20
68235;DHT22;55052;52.056;5.296;2023-01-08T13:32:28;11.10;82.70
68235;DHT22;55052;52.056;5.296;2023-01-08T13:37:37;11.10;82.70
68235;DHT22;55052;52.056;5.296;2023-01-08T13:40:04;11.10;82.50
68235;DHT22;55052;52.056;5.296;2023-01-08T13:42:50;11.10;82.10
68235;DHT22;55052;52.056;5.296;2023-01-08T13:45:17;11.10;82.00
68235;DHT22;55052;52.056;5.296;2023-01-08T13:47:44;11.10;82.00
68235;DHT22;55052;52.056;5.296;2023-01-08T13:50:16;11.10;81.40
68235;DHT22;55052;52.056;5.296;2023-01-08T13:53:04;11.10;81.50
68235;DHT22;55052;52.056;5.296;2023-01-08T13:55:37;11.10;80.90
68235;DHT22;55052;52.056;5.296;2023-01-08T13:58:33;11.10;81.00
68235;DHT22;55052;52.056;5.296;2023-01-08T14:00:59;11.10;80.90
68235;DHT22;55052;52.056;5.296;2023-01-08T14:03:30;11.00;80.90
68235;DHT22;55052;52.056;5.296;2023-01-08T14:06:17;11.00;81.00
68235;DHT22;55052;52.056;5.296;2023-01-08T14:09:04;11.00;80.60
68235;DHT22;55052;52.056;5.296;2023-01-08T14:11:34;11.00;80.00
68235;DHT22;55052;52.056;5.296;2023-01-08T14:14:02;11.00;80.40
68235;DHT22;55052;52.056;5.296;2023-01-08T14:16:29;11.00;80.40
68235;DHT22;55052;52.056;5.296;2023-01-08T14:19:00;11.00;80.20
68235;DHT22;55052;52.056;5.296;2023-01-08T14:21:27;11.00;80.80
68235;DHT22;55052;52.056;5.296;2023-01-08T14:23:54;11.00;80.60
68235;DHT22;55052;52.056;5.296;2023-01-08T14:26:31;11.00;80.80
68235;DHT22;55052;52.056;5.296;2023-01-08T14:29:02;11.00;80.50
68235;DHT22;55052;52.056;5.296;2023-01-08T14:31:30;11.00;80.40
68235;DHT22;55052;52.056;5.296;2023-01-08T14:33:58;11.00;80.40
68235;DHT22;55052;52.056;5.296;2023-01-08T14:36:26;11.00;80.10
68235;DHT22;55052;52.056;5.296;2023-01-08T14:38:52;11.00;80.00
68235;DHT22;55052;52.056;5.296;2023-01-08T14:41:34;11.00;80.10
68235;DHT22;55052;52.056;5.296;2023-01-08T14:44:21;11.00;80.50
68235;DHT22;55052;52.056;5.296;2023-01-08T14:47:02;11.00;80.20
68235;DHT22;55052;52.056;5.296;2023-01-08T14:49:32;10.90;80.30
68235;DHT22;55052;52.056;5.296;2023-01-08T14:52:01;10.90;80.00
68235;DHT22;55052;52.056;5.296;2023-01-08T14:54:31;10.90;80.00
68235;DHT22;55052;52.056;5.296;2023-01-08T14:57:00;10.90;79.70
68235;DHT22;55052;52.056;5.296;2023-01-08T14:59:31;10.90;80.00
68235;DHT22;55052;52.056;5.296;2023-01-08T15:02:00;10.90;79.90
68235;DHT22;55052;52.056;5.296;2023-01-08T15:04:31;10.80;79.90
68235;DHT22;55052;52.056;5.296;2023-01-08T15:07:19;10.80;79.70
68235;DHT22;55052;52.056;5.296;2023-01-08T15:09:58;10.80;80.10
68235;DHT22;55052;52.056;5.296;2023-01-08T15:12:28;10.70;79.80
68235;DHT22;55052;52.056;5.296;2023-01-08T15:15:07;10.70;79.60
68235;DHT22;55052;52.056;5.296;2023-01-08T15:17:34;10.70;80.00
68235;DHT22;55052;52.056;5.296;2023-01-08T15:20:01;10.60;79.90
68235;DHT22;55052;52.056;5.296;2023-01-08T15:22:29;10.60;80.00
68235;DHT22;55052;52.056;5.296;2023-01-08T15:25:04;10.60;80.10
68235;DHT22;55052;52.056;5.296;2023-01-08T15:27:32;10.50;80.10
68235;DHT22;55052;52.056;5.296;2023-01-08T15:30:04;10.50;80.00
68235;DHT22;55052;52.056;5.296;2023-01-08T15:32:35;10.50;80.10
68235;DHT22;55052;52.056;5.296;2023-01-08T15:35:14;10.40;80.40
68235;DHT22;55052;52.056;5.296;2023-01-08T15:37:41;10.40;80.30
68235;DHT22;55052;52.056;5.296;2023-01-08T15:40:09;10.40;80.20
68235;DHT22;55052;52.056;5.296;2023-01-08T15:42:37;10.40;80.30
68235;DHT22;55052;52.056;5.296;2023-01-08T15:45:26;10.30;80.50
68235;DHT22;55052;52.056;5.296;2023-01-08T15:47:54;10.30;80.70
68235;DHT22;55052;52.056;5.296;2023-01-08T15:50:21;10.20;80.60
68235;DHT22;55052;52.056;5.296;2023-01-08T15:52:48;10.20;80.60
68235;DHT22;55052;52.056;5.296;2023-01-08T15:55:17;10.20;80.70
68235;DHT22;55052;52.056;5.296;2023-01-08T15:57:44;10.10;80.70
68235;DHT22;55052;52.056;5.296;2023-01-08T16:00:13;10.10;80.90
68235;DHT22;55052;52.056;5.296;2023-01-08T16:02:48;10.10;81.10
68235;DHT22;55052;52.056;5.296;2023-01-08T16:05:16;10.00;81.20
68235;DHT22;55052;52.056;5.296;2023-01-08T16:07:43;10.00;81.30
68235;DHT22;55052;52.056;5.296;2023-01-08T16:10:14;10.00;81.50
68235;DHT22;55052;52.056;5.296;2023-01-08T16:12:41;9.90;81.40
68235;DHT22;55052;52.056;5.296;2023-01-08T16:15:11;9.90;81.60
68235;DHT22;55052;52.056;5.296;2023-01-08T16:17:39;9.80;81.60
68235;DHT22;55052;52.056;5.296;2023-01-08T16:20:06;9.80;81.70
68235;DHT22;55052;52.056;5.296;2023-01-08T16:22:33;9.80;81.90
68235;DHT22;55052;52.056;5.296;2023-01-08T16:25:00;9.70;81.80
68235;DHT22;55052;52.056;5.296;2023-01-08T16:27:28;9.70;81.90
68235;DHT22;55052;52.056;5.296;2023-01-08T16:29:55;9.60;81.80
68235;DHT22;55052;52.056;5.296;2023-01-08T16:32:22;9.60;81.90
68235;DHT22;55052;52.056;5.296;2023-01-08T16:34:49;9.60;82.10
68235;DHT22;55052;52.056;5.296;2023-01-08T16:37:15;9.60;82.20
68235;DHT22;55052;52.056;5.296;2023-01-08T16:39:42;9.50;83.00
68235;DHT22;55052;52.056;5.296;2023-01-08T16:42:09;9.50;82.40
68235;DHT22;55052;52.056;5.296;2023-01-08T16:44:37;9.50;82.30
68235;DHT22;55052;52.056;5.296;2023-01-08T16:47:04;9.50;82.40
68235;DHT22;55052;52.056;5.296;2023-01-08T16:49:31;9.50;82.50
68235;DHT22;55052;52.056;5.296;2023-01-08T16:51:59;9.50;82.70
68235;DHT22;55052;52.056;5.296;2023-01-08T16:54:26;9.50;82.90
68235;DHT22;55052;52.056;5.296;2023-01-08T16:56:53;9.40;83.00
68235;DHT22;55052;52.056;5.296;2023-01-08T16:59:19;9.40;83.10
68235;DHT22;55052;52.056;5.296;2023-01-08T17:01:52;9.40;83.20
68235;DHT22;55052;52.056;5.296;2023-01-08T17:04:19;9.40;83.10
68235;DHT22;55052;52.056;5.296;2023-01-08T17:06:46;9.50;83.20
68235;DHT22;55052;52.056;5.296;2023-01-08T17:09:13;9.50;83.30
68235;DHT22;55052;52.056;5.296;2023-01-08T17:11:41;9.40;84.10